Effie, Minnesota
Current Conditions -  °F | °C
As of 6:13 AM on Monday 26 Jan 2015 (Local Time) from KFOZ Reporting Station
Overcast Overcast  
Wind Chill: 25°   Ceiling: 600
Heat Index: 25°   Visibility: 7mi
Dew Point: 23°   Wind: 0mph
Humidity: 93%   Direction: NA
Pressure: 29.58"   Gusts: NA
Location:  47.84°N, 93.64°W
Report Text: KFOZ 261213Z AUTO 00000KT 7SM OVC006 M04/M05 A2958 RMK AO2
Loading
Personal Weather Stations






























Interactive Weather Map New forecast layout! Learn more

10-Day Weather Forecast

Advertisements
Track Severe Weather on mobile